sensor_id;sensor_type;location;lat;lon;timestamp;P1;durP1;ratioP1;P2;durP2;ratioP2
17079;SDS011;8655;57.106;-2.088;2023-12-04T00:01:47;1.50;;;1.20;;
17079;SDS011;8655;57.106;-2.088;2023-12-04T00:04:13;1.70;;;1.30;;
17079;SDS011;8655;57.106;-2.088;2023-12-04T00:06:40;1.47;;;1.10;;
17079;SDS011;8655;57.106;-2.088;2023-12-04T00:09:06;1.40;;;1.03;;
17079;SDS011;8655;57.106;-2.088;2023-12-04T00:11:32;1.53;;;1.30;;
17079;SDS011;8655;57.106;-2.088;2023-12-04T00:13:58;2.27;;;1.33;;
17079;SDS011;8655;57.106;-2.088;2023-12-04T00:16:24;1.40;;;1.30;;
17079;SDS011;8655;57.106;-2.088;2023-12-04T00:18:50;1.20;;;1.07;;
17079;SDS011;8655;57.106;-2.088;2023-12-04T00:21:16;1.67;;;1.20;;
17079;SDS011;8655;57.106;-2.088;2023-12-04T00:23:42;1.80;;;1.20;;
17079;SDS011;8655;57.106;-2.088;2023-12-04T00:26:08;1.30;;;1.10;;
17079;SDS011;8655;57.106;-2.088;2023-12-04T00:28:36;1.57;;;1.20;;
17079;SDS011;8655;57.106;-2.088;2023-12-04T00:31:02;1.33;;;1.20;;
17079;SDS011;8655;57.106;-2.088;2023-12-04T00:33:28;1.07;;;0.97;;
17079;SDS011;8655;57.106;-2.088;2023-12-04T00:35:53;1.43;;;0.90;;
17079;SDS011;8655;57.106;-2.088;2023-12-04T00:38:19;1.30;;;1.20;;
17079;SDS011;8655;57.106;-2.088;2023-12-04T00:40:45;1.10;;;1.00;;
17079;SDS011;8655;57.106;-2.088;2023-12-04T00:43:11;0.87;;;0.87;;
17079;SDS011;8655;57.106;-2.088;2023-12-04T00:45:36;1.00;;;0.90;;
17079;SDS011;8655;57.106;-2.088;2023-12-04T00:48:02;1.63;;;1.00;;
17079;SDS011;8655;57.106;-2.088;2023-12-04T00:50:28;1.47;;;1.17;;
17079;SDS011;8655;57.106;-2.088;2023-12-04T00:52:54;1.67;;;1.10;;
17079;SDS011;8655;57.106;-2.088;2023-12-04T00:55:20;1.53;;;1.17;;
17079;SDS011;8655;57.106;-2.088;2023-12-04T00:57:45;1.20;;;1.10;;
17079;SDS011;8655;57.106;-2.088;2023-12-04T01:00:12;1.10;;;1.00;;
17079;SDS011;8655;57.106;-2.088;2023-12-04T01:02:38;0.80;;;0.80;;
17079;SDS011;8655;57.106;-2.088;2023-12-04T01:05:04;1.20;;;1.10;;
17079;SDS011;8655;57.106;-2.088;2023-12-04T01:07:29;1.57;;;1.10;;
17079;SDS011;8655;57.106;-2.088;2023-12-04T01:09:55;1.23;;;1.10;;
17079;SDS011;8655;57.106;-2.088;2023-12-04T01:12:21;1.20;;;1.10;;
17079;SDS011;8655;57.106;-2.088;2023-12-04T01:14:47;1.20;;;1.10;;
17079;SDS011;8655;57.106;-2.088;2023-12-04T01:17:12;1.10;;;1.00;;
17079;SDS011;8655;57.106;-2.088;2023-12-04T01:19:38;1.20;;;1.10;;
17079;SDS011;8655;57.106;-2.088;2023-12-04T01:22:05;1.20;;;1.10;;
17079;SDS011;8655;57.106;-2.088;2023-12-04T01:24:30;1.50;;;1.10;;
17079;SDS011;8655;57.106;-2.088;2023-12-04T01:26:57;1.23;;;1.10;;
17079;SDS011;8655;57.106;-2.088;2023-12-04T01:29:23;1.33;;;1.00;;
17079;SDS011;8655;57.106;-2.088;2023-12-04T01:31:48;1.00;;;0.90;;
17079;SDS011;8655;57.106;-2.088;2023-12-04T01:34:14;1.03;;;0.93;;
17079;SDS011;8655;57.106;-2.088;2023-12-04T01:36:40;0.97;;;0.97;;
17079;SDS011;8655;57.106;-2.088;2023-12-04T01:39:06;1.13;;;0.90;;
17079;SDS011;8655;57.106;-2.088;2023-12-04T01:41:32;1.20;;;1.00;;
17079;SDS011;8655;57.106;-2.088;2023-12-04T01:43:57;1.10;;;1.00;;
17079;SDS011;8655;57.106;-2.088;2023-12-04T01:46:23;1.17;;;0.90;;
17079;SDS011;8655;57.106;-2.088;2023-12-04T01:48:49;1.67;;;1.10;;
17079;SDS011;8655;57.106;-2.088;2023-12-04T01:51:15;1.33;;;1.10;;
17079;SDS011;8655;57.106;-2.088;2023-12-04T01:53:43;1.40;;;1.00;;
17079;SDS011;8655;57.106;-2.088;2023-12-04T01:56:09;1.20;;;1.00;;
17079;SDS011;8655;57.106;-2.088;2023-12-04T01:58:36;1.90;;;1.07;;
17079;SDS011;8655;57.106;-2.088;2023-12-04T02:01:02;0.73;;;0.73;;
17079;SDS011;8655;57.106;-2.088;2023-12-04T02:03:29;1.57;;;1.10;;
17079;SDS011;8655;57.106;-2.088;2023-12-04T02:05:55;1.17;;;1.00;;
17079;SDS011;8655;57.106;-2.088;2023-12-04T02:08:24;1.60;;;1.00;;
17079;SDS011;8655;57.106;-2.088;2023-12-04T02:10:51;1.10;;;0.87;;
17079;SDS011;8655;57.106;-2.088;2023-12-04T02:13:16;1.20;;;1.10;;
17079;SDS011;8655;57.106;-2.088;2023-12-04T02:15:42;1.27;;;1.03;;
17079;SDS011;8655;57.106;-2.088;2023-12-04T02:18:09;1.13;;;1.03;;
17079;SDS011;8655;57.106;-2.088;2023-12-04T02:20:35;1.70;;;0.93;;
17079;SDS011;8655;57.106;-2.088;2023-12-04T02:23:01;1.50;;;0.90;;
17079;SDS011;8655;57.106;-2.088;2023-12-04T02:25:28;0.80;;;0.80;;
17079;SDS011;8655;57.106;-2.088;2023-12-04T02:27:56;1.00;;;0.90;;
17079;SDS011;8655;57.106;-2.088;2023-12-04T02:30:24;1.00;;;0.97;;
17079;SDS011;8655;57.106;-2.088;2023-12-04T02:32:53;0.90;;;0.90;;
17079;SDS011;8655;57.106;-2.088;2023-12-04T02:35:22;1.57;;;1.10;;
17079;SDS011;8655;57.106;-2.088;2023-12-04T02:37:50;0.80;;;0.70;;
17079;SDS011;8655;57.106;-2.088;2023-12-04T02:40:17;1.23;;;1.07;;
17079;SDS011;8655;57.106;-2.088;2023-12-04T02:42:42;1.23;;;1.07;;
17079;SDS011;8655;57.106;-2.088;2023-12-04T02:45:09;1.70;;;0.73;;
17079;SDS011;8655;57.106;-2.088;2023-12-04T02:47:35;1.00;;;0.80;;
17079;SDS011;8655;57.106;-2.088;2023-12-04T02:50:01;1.97;;;1.00;;
17079;SDS011;8655;57.106;-2.088;2023-12-04T02:52:27;1.23;;;1.00;;
17079;SDS011;8655;57.106;-2.088;2023-12-04T02:54:52;1.13;;;1.00;;
17079;SDS011;8655;57.106;-2.088;2023-12-04T02:57:18;0.73;;;0.73;;
17079;SDS011;8655;57.106;-2.088;2023-12-04T02:59:45;1.60;;;0.77;;
17079;SDS011;8655;57.106;-2.088;2023-12-04T03:02:10;0.80;;;0.80;;
17079;SDS011;8655;57.106;-2.088;2023-12-04T03:04:36;1.17;;;0.93;;
17079;SDS011;8655;57.106;-2.088;2023-12-04T03:07:02;0.80;;;0.80;;
17079;SDS011;8655;57.106;-2.088;2023-12-04T03:09:28;0.97;;;0.83;;
17079;SDS011;8655;57.106;-2.088;2023-12-04T03:11:53;1.33;;;1.00;;
17079;SDS011;8655;57.106;-2.088;2023-12-04T03:14:19;1.47;;;0.90;;
17079;SDS011;8655;57.106;-2.088;2023-12-04T03:16:45;0.83;;;0.80;;
17079;SDS011;8655;57.106;-2.088;2023-12-04T03:19:10;0.87;;;0.83;;
17079;SDS011;8655;57.106;-2.088;2023-12-04T03:21:36;1.03;;;0.90;;
17079;SDS011;8655;57.106;-2.088;2023-12-04T03:24:02;1.20;;;0.77;;
17079;SDS011;8655;57.106;-2.088;2023-12-04T03:26:28;1.43;;;0.70;;
17079;SDS011;8655;57.106;-2.088;2023-12-04T03:28:53;0.90;;;0.80;;
17079;SDS011;8655;57.106;-2.088;2023-12-04T03:31:19;1.07;;;0.90;;
17079;SDS011;8655;57.106;-2.088;2023-12-04T03:33:46;1.03;;;0.80;;
17079;SDS011;8655;57.106;-2.088;2023-12-04T03:36:11;1.10;;;0.90;;
17079;SDS011;8655;57.106;-2.088;2023-12-04T03:38:37;1.60;;;0.80;;
17079;SDS011;8655;57.106;-2.088;2023-12-04T03:41:03;0.97;;;0.80;;
17079;SDS011;8655;57.106;-2.088;2023-12-04T03:43:29;1.13;;;0.90;;
17079;SDS011;8655;57.106;-2.088;2023-12-04T03:45:54;2.00;;;1.00;;
17079;SDS011;8655;57.106;-2.088;2023-12-04T03:48:20;1.63;;;0.80;;
17079;SDS011;8655;57.106;-2.088;2023-12-04T03:50:46;1.70;;;0.90;;
17079;SDS011;8655;57.106;-2.088;2023-12-04T03:53:11;0.80;;;0.80;;
17079;SDS011;8655;57.106;-2.088;2023-12-04T03:55:37;0.70;;;0.70;;
17079;SDS011;8655;57.106;-2.088;2023-12-04T03:58:03;1.13;;;0.90;;
17079;SDS011;8655;57.106;-2.088;2023-12-04T04:00:28;1.50;;;0.80;;
17079;SDS011;8655;57.106;-2.088;2023-12-04T04:02:54;0.70;;;0.70;;
17079;SDS011;8655;57.106;-2.088;2023-12-04T04:05:20;0.83;;;0.80;;
17079;SDS011;8655;57.106;-2.088;2023-12-04T04:07:45;1.73;;;0.90;;
17079;SDS011;8655;57.106;-2.088;2023-12-04T04:10:11;1.03;;;0.87;;
17079;SDS011;8655;57.106;-2.088;2023-12-04T04:12:37;2.33;;;0.80;;
17079;SDS011;8655;57.106;-2.088;2023-12-04T04:15:03;1.23;;;0.70;;
17079;SDS011;8655;57.106;-2.088;2023-12-04T04:17:29;1.90;;;0.80;;
17079;SDS011;8655;57.106;-2.088;2023-12-04T04:19:54;1.67;;;1.10;;
17079;SDS011;8655;57.106;-2.088;2023-12-04T04:22:21;1.77;;;0.80;;
17079;SDS011;8655;57.106;-2.088;2023-12-04T04:24:47;1.43;;;1.00;;
17079;SDS011;8655;57.106;-2.088;2023-12-04T04:27:14;1.13;;;0.80;;
17079;SDS011;8655;57.106;-2.088;2023-12-04T04:29:40;1.77;;;0.77;;
17079;SDS011;8655;57.106;-2.088;2023-12-04T04:32:06;1.33;;;0.80;;
17079;SDS011;8655;57.106;-2.088;2023-12-04T04:34:32;0.80;;;0.70;;
17079;SDS011;8655;57.106;-2.088;2023-12-04T04:36:58;1.60;;;1.00;;
17079;SDS011;8655;57.106;-2.088;2023-12-04T04:39:24;0.90;;;0.80;;
17079;SDS011;8655;57.106;-2.088;2023-12-04T04:41:49;3.10;;;0.90;;
17079;SDS011;8655;57.106;-2.088;2023-12-04T04:44:15;1.43;;;0.90;;
17079;SDS011;8655;57.106;-2.088;2023-12-04T04:46:41;2.27;;;0.80;;
17079;SDS011;8655;57.106;-2.088;2023-12-04T04:49:06;1.83;;;1.00;;
17079;SDS011;8655;57.106;-2.088;2023-12-04T04:51:33;0.87;;;0.73;;
17079;SDS011;8655;57.106;-2.088;2023-12-04T04:53:59;0.80;;;0.80;;
17079;SDS011;8655;57.106;-2.088;2023-12-04T04:56:25;2.13;;;1.03;;
17079;SDS011;8655;57.106;-2.088;2023-12-04T04:58:51;1.80;;;0.83;;
17079;SDS011;8655;57.106;-2.088;2023-12-04T05:01:17;1.77;;;0.93;;
17079;SDS011;8655;57.106;-2.088;2023-12-04T05:03:43;1.80;;;0.97;;
17079;SDS011;8655;57.106;-2.088;2023-12-04T05:06:08;0.83;;;0.80;;
17079;SDS011;8655;57.106;-2.088;2023-12-04T05:08:34;1.70;;;0.90;;
17079;SDS011;8655;57.106;-2.088;2023-12-04T05:11:00;1.37;;;0.90;;
17079;SDS011;8655;57.106;-2.088;2023-12-04T05:13:26;1.37;;;0.97;;
17079;SDS011;8655;57.106;-2.088;2023-12-04T05:15:51;2.43;;;0.90;;
17079;SDS011;8655;57.106;-2.088;2023-12-04T05:18:17;1.10;;;0.90;;
17079;SDS011;8655;57.106;-2.088;2023-12-04T05:20:43;1.57;;;0.80;;
17079;SDS011;8655;57.106;-2.088;2023-12-04T05:23:09;1.50;;;1.00;;
17079;SDS011;8655;57.106;-2.088;2023-12-04T05:25:34;1.23;;;0.90;;
17079;SDS011;8655;57.106;-2.088;2023-12-04T05:28:00;1.83;;;1.00;;
17079;SDS011;8655;57.106;-2.088;2023-12-04T05:30:26;1.30;;;0.90;;
17079;SDS011;8655;57.106;-2.088;2023-12-04T05:32:51;1.90;;;0.80;;
17079;SDS011;8655;57.106;-2.088;2023-12-04T05:35:17;1.03;;;0.70;;
17079;SDS011;8655;57.106;-2.088;2023-12-04T05:37:43;2.60;;;1.03;;
17079;SDS011;8655;57.106;-2.088;2023-12-04T05:40:10;1.30;;;0.80;;
17079;SDS011;8655;57.106;-2.088;2023-12-04T05:42:36;1.37;;;0.90;;
17079;SDS011;8655;57.106;-2.088;2023-12-04T05:45:02;1.77;;;1.10;;
17079;SDS011;8655;57.106;-2.088;2023-12-04T05:47:28;2.00;;;0.90;;
17079;SDS011;8655;57.106;-2.088;2023-12-04T05:49:54;1.33;;;0.87;;
17079;SDS011;8655;57.106;-2.088;2023-12-04T05:52:20;1.13;;;0.70;;
17079;SDS011;8655;57.106;-2.088;2023-12-04T05:54:45;2.47;;;0.90;;
17079;SDS011;8655;57.106;-2.088;2023-12-04T05:57:11;0.83;;;0.73;;
17079;SDS011;8655;57.106;-2.088;2023-12-04T05:59:37;2.50;;;1.17;;
17079;SDS011;8655;57.106;-2.088;2023-12-04T06:02:03;1.23;;;1.00;;
17079;SDS011;8655;57.106;-2.088;2023-12-04T06:04:29;1.63;;;1.10;;
17079;SDS011;8655;57.106;-2.088;2023-12-04T06:06:54;2.60;;;1.00;;
17079;SDS011;8655;57.106;-2.088;2023-12-04T06:09:20;1.00;;;0.90;;
17079;SDS011;8655;57.106;-2.088;2023-12-04T06:11:46;1.60;;;1.10;;
17079;SDS011;8655;57.106;-2.088;2023-12-04T06:14:12;2.67;;;1.00;;
17079;SDS011;8655;57.106;-2.088;2023-12-04T06:16:37;2.77;;;1.10;;
17079;SDS011;8655;57.106;-2.088;2023-12-04T06:19:03;0.90;;;0.77;;
17079;SDS011;8655;57.106;-2.088;2023-12-04T06:21:29;1.43;;;1.00;;
17079;SDS011;8655;57.106;-2.088;2023-12-04T06:23:56;2.50;;;1.20;;
17079;SDS011;8655;57.106;-2.088;2023-12-04T06:26:22;1.40;;;0.80;;
17079;SDS011;8655;57.106;-2.088;2023-12-04T06:28:48;2.03;;;1.10;;
17079;SDS011;8655;57.106;-2.088;2023-12-04T06:31:14;1.77;;;1.00;;
17079;SDS011;8655;57.106;-2.088;2023-12-04T06:33:40;3.07;;;1.10;;
17079;SDS011;8655;57.106;-2.088;2023-12-04T06:36:06;2.03;;;1.10;;
17079;SDS011;8655;57.106;-2.088;2023-12-04T06:38:33;3.43;;;1.17;;
17079;SDS011;8655;57.106;-2.088;2023-12-04T06:41:04;1.10;;;0.80;;
17079;SDS011;8655;57.106;-2.088;2023-12-04T06:43:31;1.70;;;0.90;;
17079;SDS011;8655;57.106;-2.088;2023-12-04T06:45:58;2.20;;;0.97;;
17079;SDS011;8655;57.106;-2.088;2023-12-04T06:48:24;1.70;;;1.00;;
17079;SDS011;8655;57.106;-2.088;2023-12-04T06:50:50;1.80;;;1.03;;
17079;SDS011;8655;57.106;-2.088;2023-12-04T06:53:16;1.13;;;0.90;;
17079;SDS011;8655;57.106;-2.088;2023-12-04T06:55:41;2.37;;;1.23;;
17079;SDS011;8655;57.106;-2.088;2023-12-04T06:58:07;1.33;;;0.80;;
17079;SDS011;8655;57.106;-2.088;2023-12-04T07:00:33;1.43;;;0.90;;
17079;SDS011;8655;57.106;-2.088;2023-12-04T07:02:59;2.80;;;1.20;;
17079;SDS011;8655;57.106;-2.088;2023-12-04T07:05:24;2.53;;;1.00;;
17079;SDS011;8655;57.106;-2.088;2023-12-04T07:07:50;1.57;;;1.00;;
17079;SDS011;8655;57.106;-2.088;2023-12-04T07:10:16;1.43;;;1.00;;
17079;SDS011;8655;57.106;-2.088;2023-12-04T07:12:42;1.47;;;1.07;;
17079;SDS011;8655;57.106;-2.088;2023-12-04T07:15:09;1.53;;;0.90;;
17079;SDS011;8655;57.106;-2.088;2023-12-04T07:17:36;1.93;;;1.00;;
17079;SDS011;8655;57.106;-2.088;2023-12-04T07:20:03;1.23;;;1.00;;
17079;SDS011;8655;57.106;-2.088;2023-12-04T07:22:31;1.93;;;1.20;;
17079;SDS011;8655;57.106;-2.088;2023-12-04T07:24:57;1.87;;;1.10;;
17079;SDS011;8655;57.106;-2.088;2023-12-04T07:27:23;1.63;;;0.90;;
17079;SDS011;8655;57.106;-2.088;2023-12-04T07:29:49;4.17;;;1.50;;
17079;SDS011;8655;57.106;-2.088;2023-12-04T07:32:15;0.93;;;0.90;;
17079;SDS011;8655;57.106;-2.088;2023-12-04T07:34:40;2.00;;;1.10;;
17079;SDS011;8655;57.106;-2.088;2023-12-04T07:37:06;3.20;;;1.30;;
17079;SDS011;8655;57.106;-2.088;2023-12-04T07:39:32;2.47;;;1.20;;
17079;SDS011;8655;57.106;-2.088;2023-12-04T07:41:58;1.73;;;1.10;;
17079;SDS011;8655;57.106;-2.088;2023-12-04T07:44:23;2.10;;;1.30;;
17079;SDS011;8655;57.106;-2.088;2023-12-04T07:46:49;3.53;;;1.17;;
17079;SDS011;8655;57.106;-2.088;2023-12-04T07:49:15;1.87;;;1.37;;
17079;SDS011;8655;57.106;-2.088;2023-12-04T07:51:41;1.97;;;1.17;;
17079;SDS011;8655;57.106;-2.088;2023-12-04T07:54:07;2.70;;;1.10;;
17079;SDS011;8655;57.106;-2.088;2023-12-04T07:56:33;2.53;;;1.20;;
17079;SDS011;8655;57.106;-2.088;2023-12-04T07:58:58;2.80;;;1.43;;
17079;SDS011;8655;57.106;-2.088;2023-12-04T08:01:24;2.70;;;1.30;;
17079;SDS011;8655;57.106;-2.088;2023-12-04T08:03:50;3.63;;;1.27;;
17079;SDS011;8655;57.106;-2.088;2023-12-04T08:06:15;3.03;;;1.50;;
17079;SDS011;8655;57.106;-2.088;2023-12-04T08:08:43;2.73;;;1.20;;
17079;SDS011;8655;57.106;-2.088;2023-12-04T08:11:10;1.77;;;1.10;;
17079;SDS011;8655;57.106;-2.088;2023-12-04T08:13:38;4.23;;;1.30;;
17079;SDS011;8655;57.106;-2.088;2023-12-04T08:16:03;2.27;;;1.40;;
17079;SDS011;8655;57.106;-2.088;2023-12-04T08:18:30;3.07;;;1.37;;
17079;SDS011;8655;57.106;-2.088;2023-12-04T08:20:55;2.77;;;1.20;;
17079;SDS011;8655;57.106;-2.088;2023-12-04T08:23:21;2.20;;;1.23;;
17079;SDS011;8655;57.106;-2.088;2023-12-04T08:25:47;2.17;;;1.30;;
17079;SDS011;8655;57.106;-2.088;2023-12-04T08:28:13;2.13;;;1.20;;
17079;SDS011;8655;57.106;-2.088;2023-12-04T08:30:38;3.97;;;1.50;;
17079;SDS011;8655;57.106;-2.088;2023-12-04T08:33:04;4.43;;;1.50;;
17079;SDS011;8655;57.106;-2.088;2023-12-04T08:35:30;2.83;;;1.30;;
17079;SDS011;8655;57.106;-2.088;2023-12-04T08:37:56;3.10;;;1.40;;
17079;SDS011;8655;57.106;-2.088;2023-12-04T08:40:21;3.07;;;1.37;;
17079;SDS011;8655;57.106;-2.088;2023-12-04T08:42:47;2.50;;;1.37;;
17079;SDS011;8655;57.106;-2.088;2023-12-04T08:45:13;5.30;;;1.70;;
17079;SDS011;8655;57.106;-2.088;2023-12-04T08:47:38;5.40;;;1.63;;
17079;SDS011;8655;57.106;-2.088;2023-12-04T08:50:05;3.13;;;1.50;;
17079;SDS011;8655;57.106;-2.088;2023-12-04T08:52:31;3.27;;;1.40;;
17079;SDS011;8655;57.106;-2.088;2023-12-04T08:54:57;4.37;;;1.60;;
17079;SDS011;8655;57.106;-2.088;2023-12-04T08:57:22;3.60;;;1.43;;
17079;SDS011;8655;57.106;-2.088;2023-12-04T08:59:48;2.77;;;1.70;;
17079;SDS011;8655;57.106;-2.088;2023-12-04T09:02:14;3.53;;;1.60;;
17079;SDS011;8655;57.106;-2.088;2023-12-04T09:04:39;2.97;;;1.40;;
17079;SDS011;8655;57.106;-2.088;2023-12-04T09:07:05;2.67;;;1.43;;
17079;SDS011;8655;57.106;-2.088;2023-12-04T09:09:31;3.27;;;1.60;;
17079;SDS011;8655;57.106;-2.088;2023-12-04T09:11:57;4.63;;;1.70;;
17079;SDS011;8655;57.106;-2.088;2023-12-04T09:14:23;6.50;;;1.60;;
17079;SDS011;8655;57.106;-2.088;2023-12-04T09:16:49;2.63;;;1.43;;
17079;SDS011;8655;57.106;-2.088;2023-12-04T09:19:14;2.57;;;1.37;;
17079;SDS011;8655;57.106;-2.088;2023-12-04T09:21:40;3.20;;;1.40;;
17079;SDS011;8655;57.106;-2.088;2023-12-04T09:24:06;3.60;;;1.73;;
17079;SDS011;8655;57.106;-2.088;2023-12-04T09:26:31;3.90;;;1.40;;
17079;SDS011;8655;57.106;-2.088;2023-12-04T09:28:57;2.70;;;1.63;;
17079;SDS011;8655;57.106;-2.088;2023-12-04T09:31:23;2.77;;;1.43;;
17079;SDS011;8655;57.106;-2.088;2023-12-04T09:33:48;4.83;;;1.53;;
17079;SDS011;8655;57.106;-2.088;2023-12-04T09:36:14;1.93;;;1.33;;
17079;SDS011;8655;57.106;-2.088;2023-12-04T09:38:40;3.33;;;1.60;;
17079;SDS011;8655;57.106;-2.088;2023-12-04T09:41:05;4.23;;;1.50;;
17079;SDS011;8655;57.106;-2.088;2023-12-04T09:43:34;2.80;;;1.40;;
17079;SDS011;8655;57.106;-2.088;2023-12-04T09:46:00;3.87;;;1.70;;
17079;SDS011;8655;57.106;-2.088;2023-12-04T09:48:26;4.43;;;1.60;;
17079;SDS011;8655;57.106;-2.088;2023-12-04T09:50:54;2.70;;;1.20;;
17079;SDS011;8655;57.106;-2.088;2023-12-04T09:53:20;2.50;;;1.40;;
17079;SDS011;8655;57.106;-2.088;2023-12-04T09:55:50;3.10;;;1.40;;
17079;SDS011;8655;57.106;-2.088;2023-12-04T09:58:18;4.10;;;1.83;;
17079;SDS011;8655;57.106;-2.088;2023-12-04T10:00:45;2.67;;;1.50;;
17079;SDS011;8655;57.106;-2.088;2023-12-04T10:03:11;3.67;;;1.30;;
17079;SDS011;8655;57.106;-2.088;2023-12-04T10:05:40;2.43;;;1.40;;
17079;SDS011;8655;57.106;-2.088;2023-12-04T10:08:09;2.20;;;1.43;;
17079;SDS011;8655;57.106;-2.088;2023-12-04T10:10:35;3.77;;;1.60;;
17079;SDS011;8655;57.106;-2.088;2023-12-04T10:13:01;2.60;;;1.33;;
17079;SDS011;8655;57.106;-2.088;2023-12-04T10:15:28;2.17;;;1.30;;
17079;SDS011;8655;57.106;-2.088;2023-12-04T10:17:53;2.53;;;1.50;;
17079;SDS011;8655;57.106;-2.088;2023-12-04T10:20:19;2.83;;;1.33;;
17079;SDS011;8655;57.106;-2.088;2023-12-04T10:25:20;2.47;;;1.40;;
17079;SDS011;8655;57.106;-2.088;2023-12-04T10:27:46;2.30;;;1.27;;
17079;SDS011;8655;57.106;-2.088;2023-12-04T10:30:22;3.97;;;1.73;;
17079;SDS011;8655;57.106;-2.088;2023-12-04T10:32:54;2.70;;;1.40;;
17079;SDS011;8655;57.106;-2.088;2023-12-04T10:35:29;2.07;;;1.40;;
17079;SDS011;8655;57.106;-2.088;2023-12-04T10:37:56;4.97;;;1.50;;
17079;SDS011;8655;57.106;-2.088;2023-12-04T10:40:22;2.00;;;1.50;;
17079;SDS011;8655;57.106;-2.088;2023-12-04T10:42:49;2.70;;;1.37;;
17079;SDS011;8655;57.106;-2.088;2023-12-04T10:45:15;2.97;;;1.50;;
17079;SDS011;8655;57.106;-2.088;2023-12-04T10:47:41;2.43;;;1.27;;
17079;SDS011;8655;57.106;-2.088;2023-12-04T10:50:09;3.30;;;1.30;;
17079;SDS011;8655;57.106;-2.088;2023-12-04T10:52:34;4.07;;;1.50;;
17079;SDS011;8655;57.106;-2.088;2023-12-04T10:55:04;3.97;;;1.57;;
17079;SDS011;8655;57.106;-2.088;2023-12-04T10:57:36;4.10;;;1.57;;
17079;SDS011;8655;57.106;-2.088;2023-12-04T11:00:04;2.90;;;1.40;;
17079;SDS011;8655;57.106;-2.088;2023-12-04T11:02:33;2.93;;;1.50;;
17079;SDS011;8655;57.106;-2.088;2023-12-04T11:05:05;2.47;;;1.30;;
17079;SDS011;8655;57.106;-2.088;2023-12-04T11:07:39;3.50;;;1.40;;
17079;SDS011;8655;57.106;-2.088;2023-12-04T11:10:08;3.27;;;1.60;;
17079;SDS011;8655;57.106;-2.088;2023-12-04T11:12:35;2.17;;;1.30;;
17079;SDS011;8655;57.106;-2.088;2023-12-04T11:15:07;3.00;;;1.80;;
17079;SDS011;8655;57.106;-2.088;2023-12-04T11:17:34;2.90;;;1.30;;
17079;SDS011;8655;57.106;-2.088;2023-12-04T11:20:05;5.53;;;1.60;;
17079;SDS011;8655;57.106;-2.088;2023-12-04T11:22:35;2.93;;;1.40;;
17079;SDS011;8655;57.106;-2.088;2023-12-04T11:25:05;1.73;;;1.30;;
17079;SDS011;8655;57.106;-2.088;2023-12-04T11:27:33;3.17;;;1.50;;
17079;SDS011;8655;57.106;-2.088;2023-12-04T11:30:00;2.43;;;1.30;;
17079;SDS011;8655;57.106;-2.088;2023-12-04T11:32:28;3.10;;;1.30;;
17079;SDS011;8655;57.106;-2.088;2023-12-04T11:34:54;4.50;;;1.43;;
17079;SDS011;8655;57.106;-2.088;2023-12-04T11:37:23;2.60;;;1.30;;
17079;SDS011;8655;57.106;-2.088;2023-12-04T11:39:49;4.00;;;1.50;;
17079;SDS011;8655;57.106;-2.088;2023-12-04T11:42:21;2.50;;;1.10;;
17079;SDS011;8655;57.106;-2.088;2023-12-04T11:44:48;3.33;;;1.50;;
17079;SDS011;8655;57.106;-2.088;2023-12-04T11:47:15;2.10;;;1.27;;
17079;SDS011;8655;57.106;-2.088;2023-12-04T11:49:40;2.40;;;1.30;;
17079;SDS011;8655;57.106;-2.088;2023-12-04T11:52:06;2.03;;;1.40;;
17079;SDS011;8655;57.106;-2.088;2023-12-04T11:57:24;2.33;;;1.40;;
17079;SDS011;8655;57.106;-2.088;2023-12-04T11:59:51;2.57;;;1.57;;
17079;SDS011;8655;57.106;-2.088;2023-12-04T12:02:17;2.20;;;1.37;;
17079;SDS011;8655;57.106;-2.088;2023-12-04T12:04:43;1.87;;;1.33;;
17079;SDS011;8655;57.106;-2.088;2023-12-04T12:07:12;2.30;;;1.50;;
17079;SDS011;8655;57.106;-2.088;2023-12-04T12:09:38;3.93;;;1.73;;
17079;SDS011;8655;57.106;-2.088;2023-12-04T12:12:04;3.30;;;1.60;;
17079;SDS011;8655;57.106;-2.088;2023-12-04T12:14:30;4.10;;;1.50;;
17079;SDS011;8655;57.106;-2.088;2023-12-04T12:16:57;3.57;;;1.70;;
17079;SDS011;8655;57.106;-2.088;2023-12-04T12:19:25;2.10;;;1.37;;
17079;SDS011;8655;57.106;-2.088;2023-12-04T12:21:51;3.43;;;1.87;;
17079;SDS011;8655;57.106;-2.088;2023-12-04T12:24:17;1.70;;;1.30;;
17079;SDS011;8655;57.106;-2.088;2023-12-04T12:26:43;2.13;;;1.53;;
17079;SDS011;8655;57.106;-2.088;2023-12-04T12:29:10;3.33;;;1.33;;
17079;SDS011;8655;57.106;-2.088;2023-12-04T12:31:36;2.57;;;1.33;;
17079;SDS011;8655;57.106;-2.088;2023-12-04T12:34:02;2.10;;;1.40;;
17079;SDS011;8655;57.106;-2.088;2023-12-04T12:36:31;2.80;;;1.60;;
17079;SDS011;8655;57.106;-2.088;2023-12-04T12:39:00;3.77;;;1.90;;
17079;SDS011;8655;57.106;-2.088;2023-12-04T12:41:28;3.47;;;1.50;;
17079;SDS011;8655;57.106;-2.088;2023-12-04T12:43:55;1.80;;;1.30;;
17079;SDS011;8655;57.106;-2.088;2023-12-04T12:46:21;2.23;;;1.40;;
17079;SDS011;8655;57.106;-2.088;2023-12-04T12:48:47;3.10;;;1.40;;
17079;SDS011;8655;57.106;-2.088;2023-12-04T12:51:13;2.83;;;1.40;;
17079;SDS011;8655;57.106;-2.088;2023-12-04T12:53:39;3.50;;;1.80;;
17079;SDS011;8655;57.106;-2.088;2023-12-04T12:56:05;3.87;;;1.50;;
17079;SDS011;8655;57.106;-2.088;2023-12-04T12:58:33;2.53;;;1.30;;
17079;SDS011;8655;57.106;-2.088;2023-12-04T13:00:59;2.60;;;1.50;;
17079;SDS011;8655;57.106;-2.088;2023-12-04T13:03:26;2.83;;;1.53;;
17079;SDS011;8655;57.106;-2.088;2023-12-04T13:05:53;2.43;;;1.43;;
17079;SDS011;8655;57.106;-2.088;2023-12-04T13:08:18;2.20;;;1.20;;
17079;SDS011;8655;57.106;-2.088;2023-12-04T13:10:44;3.33;;;1.53;;
17079;SDS011;8655;57.106;-2.088;2023-12-04T13:13:13;3.50;;;1.43;;
17079;SDS011;8655;57.106;-2.088;2023-12-04T13:15:39;2.63;;;1.63;;
17079;SDS011;8655;57.106;-2.088;2023-12-04T13:18:06;3.73;;;1.63;;
17079;SDS011;8655;57.106;-2.088;2023-12-04T13:20:32;3.27;;;1.60;;
17079;SDS011;8655;57.106;-2.088;2023-12-04T13:22:59;3.63;;;1.60;;
17079;SDS011;8655;57.106;-2.088;2023-12-04T13:25:25;3.57;;;1.60;;
17079;SDS011;8655;57.106;-2.088;2023-12-04T13:27:51;2.90;;;1.40;;
17079;SDS011;8655;57.106;-2.088;2023-12-04T13:30:17;3.30;;;1.40;;
17079;SDS011;8655;57.106;-2.088;2023-12-04T13:32:42;3.37;;;1.63;;
17079;SDS011;8655;57.106;-2.088;2023-12-04T13:35:09;3.43;;;1.30;;
17079;SDS011;8655;57.106;-2.088;2023-12-04T13:37:36;3.30;;;1.53;;
17079;SDS011;8655;57.106;-2.088;2023-12-04T13:40:04;3.70;;;1.70;;
17079;SDS011;8655;57.106;-2.088;2023-12-04T13:42:37;2.83;;;1.50;;
17079;SDS011;8655;57.106;-2.088;2023-12-04T13:45:21;3.33;;;1.60;;
17079;SDS011;8655;57.106;-2.088;2023-12-04T13:47:48;3.57;;;1.70;;
17079;SDS011;8655;57.106;-2.088;2023-12-04T13:50:14;1.90;;;1.33;;
17079;SDS011;8655;57.106;-2.088;2023-12-04T13:52:40;3.80;;;1.63;;
17079;SDS011;8655;57.106;-2.088;2023-12-04T13:55:07;4.57;;;1.73;;
17079;SDS011;8655;57.106;-2.088;2023-12-04T13:57:45;2.13;;;1.33;;
17079;SDS011;8655;57.106;-2.088;2023-12-04T14:00:34;2.60;;;1.40;;
17079;SDS011;8655;57.106;-2.088;2023-12-04T14:03:01;1.50;;;1.40;;
17079;SDS011;8655;57.106;-2.088;2023-12-04T14:05:30;2.53;;;1.60;;
17079;SDS011;8655;57.106;-2.088;2023-12-04T14:07:56;2.30;;;1.30;;
17079;SDS011;8655;57.106;-2.088;2023-12-04T14:10:23;3.73;;;1.70;;
17079;SDS011;8655;57.106;-2.088;2023-12-04T14:12:51;1.73;;;1.40;;
17079;SDS011;8655;57.106;-2.088;2023-12-04T14:15:16;2.13;;;1.30;;
17079;SDS011;8655;57.106;-2.088;2023-12-04T14:17:42;3.53;;;1.70;;
17079;SDS011;8655;57.106;-2.088;2023-12-04T14:20:08;2.90;;;1.67;;
17079;SDS011;8655;57.106;-2.088;2023-12-04T14:22:39;3.70;;;1.43;;
17079;SDS011;8655;57.106;-2.088;2023-12-04T14:25:07;3.10;;;1.40;;
17079;SDS011;8655;57.106;-2.088;2023-12-04T14:27:33;2.40;;;1.40;;
17079;SDS011;8655;57.106;-2.088;2023-12-04T14:29:59;3.73;;;1.70;;
17079;SDS011;8655;57.106;-2.088;2023-12-04T14:32:24;2.53;;;1.50;;
17079;SDS011;8655;57.106;-2.088;2023-12-04T14:34:50;3.27;;;1.50;;
17079;SDS011;8655;57.106;-2.088;2023-12-04T14:37:16;2.60;;;1.17;;
17079;SDS011;8655;57.106;-2.088;2023-12-04T14:39:42;2.90;;;1.43;;
17079;SDS011;8655;57.106;-2.088;2023-12-04T14:42:07;2.53;;;1.43;;
17079;SDS011;8655;57.106;-2.088;2023-12-04T14:44:33;3.40;;;1.40;;
17079;SDS011;8655;57.106;-2.088;2023-12-04T14:46:58;2.97;;;1.30;;
17079;SDS011;8655;57.106;-2.088;2023-12-04T14:49:24;2.20;;;1.50;;